createdAt,value
2023-05-17T00:00:57.405Z,20.26
2023-05-17T00:01:57.484Z,20.25
2023-05-17T00:02:57.481Z,20.25
2023-05-17T00:03:57.502Z,20.26
2023-05-17T00:04:57.580Z,20.25
2023-05-17T00:05:57.603Z,20.25
2023-05-17T00:06:57.656Z,20.25
2023-05-17T00:07:57.694Z,20.25
2023-05-17T00:08:57.745Z,20.26
2023-05-17T00:09:57.786Z,20.26
2023-05-17T00:10:57.837Z,20.25
2023-05-17T00:11:57.892Z,20.26
2023-05-17T00:12:57.934Z,20.25
2023-05-17T00:13:57.990Z,20.25
2023-05-17T00:14:58.035Z,20.25
2023-05-17T00:15:58.083Z,20.25
2023-05-17T00:16:58.138Z,20.25
2023-05-17T00:17:58.320Z,20.25
2023-05-17T00:18:58.280Z,20.25
2023-05-17T00:19:58.286Z,20.24
2023-05-17T00:20:58.337Z,20.24
2023-05-17T00:21:58.399Z,20.24
2023-05-17T00:22:58.448Z,20.23
2023-05-17T00:23:58.505Z,20.24
2023-05-17T00:24:58.594Z,20.24
2023-05-17T00:25:58.595Z,20.24
2023-05-17T00:26:58.652Z,20.24
2023-05-17T00:27:58.757Z,20.23
2023-05-17T00:28:58.753Z,20.23
2023-05-17T00:29:58.792Z,20.23
2023-05-17T00:30:58.861Z,20.23
2023-05-17T00:31:58.914Z,20.23
2023-05-17T00:32:59.011Z,20.22
2023-05-17T00:33:59.128Z,20.23
2023-05-17T00:34:59.125Z,20.23
2023-05-17T00:35:59.124Z,20.22
2023-05-17T00:36:59.172Z,20.23
2023-05-17T00:37:59.228Z,20.21
2023-05-17T00:38:59.289Z,20.22
2023-05-17T00:39:59.335Z,20.22
2023-05-17T00:40:59.389Z,20.21
2023-05-17T00:41:59.441Z,20.22
2023-05-17T00:42:59.494Z,20.22
2023-05-17T00:43:59.533Z,20.22
2023-05-17T00:44:59.597Z,20.21
2023-05-17T00:45:59.702Z,20.22
2023-05-17T00:46:59.730Z,20.22
2023-05-17T00:47:59.789Z,20.22
2023-05-17T00:48:59.795Z,20.21
2023-05-17T00:49:59.847Z,20.22
2023-05-17T00:50:59.906Z,20.21
2023-05-17T00:51:59.936Z,20.22
2023-05-17T00:52:59.988Z,20.21
2023-05-17T00:54:00.038Z,20.21
2023-05-17T00:55:00.163Z,20.21
2023-05-17T00:56:00.152Z,20.21
2023-05-17T00:57:00.198Z,20.21
2023-05-17T00:58:00.250Z,20.21
2023-05-17T00:59:00.294Z,20.21
2023-05-17T01:00:00.351Z,20.22
2023-05-17T01:01:00.387Z,20.21
2023-05-17T01:02:00.454Z,20.21
2023-05-17T01:03:00.571Z,20.20
2023-05-17T01:04:00.691Z,20.20
2023-05-17T01:05:00.801Z,20.21
2023-05-17T01:06:00.725Z,20.21
2023-05-17T01:07:00.703Z,20.20
2023-05-17T01:08:00.756Z,20.20
2023-05-17T01:09:00.810Z,20.20
2023-05-17T01:10:00.849Z,20.20
2023-05-17T01:11:00.898Z,20.20
2023-05-17T01:12:00.963Z,20.19
2023-05-17T01:13:00.995Z,20.19
2023-05-17T01:14:01.044Z,20.20
2023-05-17T01:15:01.104Z,20.19
2023-05-17T01:16:01.169Z,20.19
2023-05-17T01:17:01.210Z,20.19
2023-05-17T01:18:01.415Z,20.19
2023-05-17T01:19:01.398Z,20.19
2023-05-17T01:20:01.546Z,20.19
2023-05-17T01:21:01.458Z,20.19
2023-05-17T01:22:01.524Z,20.19
2023-05-17T01:23:01.523Z,20.19
2023-05-17T01:24:01.574Z,20.18
2023-05-17T01:25:01.639Z,20.19
2023-05-17T01:26:01.686Z,20.19
2023-05-17T01:27:01.749Z,20.19
2023-05-17T01:28:01.852Z,20.19
2023-05-17T01:29:01.833Z,20.19
2023-05-17T01:30:01.910Z,20.18
2023-05-17T01:31:01.965Z,20.19
2023-05-17T01:32:01.999Z,20.20
2023-05-17T01:33:02.129Z,20.19
2023-05-17T01:34:02.217Z,20.19
2023-05-17T01:35:02.174Z,20.20
2023-05-17T01:36:02.197Z,20.20
2023-05-17T01:37:02.271Z,20.20
2023-05-17T01:38:02.376Z,20.20
2023-05-17T01:39:02.364Z,20.20
2023-05-17T01:40:02.424Z,20.20
2023-05-17T01:41:02.507Z,20.21
2023-05-17T01:42:02.520Z,20.21
2023-05-17T01:43:02.570Z,20.21
2023-05-17T01:44:02.627Z,20.22
2023-05-17T01:45:02.667Z,20.21
2023-05-17T01:46:02.727Z,20.22
2023-05-17T01:47:02.781Z,20.22
2023-05-17T01:48:02.887Z,20.23
2023-05-17T01:49:03.031Z,20.23
2023-05-17T01:50:02.926Z,20.23
2023-05-17T01:51:02.990Z,20.24
2023-05-17T01:52:03.037Z,20.24
2023-05-17T01:53:03.089Z,20.24
2023-05-17T01:54:03.254Z,20.25
2023-05-17T01:55:03.190Z,20.25
2023-05-17T01:56:03.255Z,20.25
2023-05-17T01:57:03.294Z,20.26
2023-05-17T01:58:03.357Z,20.25
2023-05-17T01:59:03.410Z,20.26
2023-05-17T02:00:03.457Z,20.27
2023-05-17T02:01:03.509Z,20.27
2023-05-17T02:02:03.567Z,20.27
2023-05-17T02:03:03.696Z,20.27
2023-05-17T02:04:03.766Z,20.27
2023-05-17T02:05:03.785Z,20.28
2023-05-17T02:06:03.790Z,20.28
2023-05-17T02:07:03.845Z,20.27
2023-05-17T02:08:03.888Z,20.27
2023-05-17T02:09:03.938Z,20.28
2023-05-17T02:10:04.076Z,20.29
2023-05-17T02:11:04.054Z,20.28
2023-05-17T02:12:04.114Z,20.28
2023-05-17T02:13:04.172Z,20.28
2023-05-17T02:14:04.208Z,20.29
2023-05-17T02:15:04.255Z,20.29
2023-05-17T02:16:04.360Z,20.29
2023-05-17T02:17:04.375Z,20.29
2023-05-17T02:18:04.523Z,20.29
2023-05-17T02:19:04.503Z,20.28
2023-05-17T02:20:04.532Z,20.30
2023-05-17T02:21:04.600Z,20.29
2023-05-17T02:22:04.653Z,20.30
2023-05-17T02:23:04.715Z,20.30
2023-05-17T02:24:04.765Z,20.30
2023-05-17T02:25:05.089Z,20.29
2023-05-17T02:26:04.961Z,20.30
2023-05-17T02:27:04.930Z,20.30
2023-05-17T02:28:04.991Z,20.30
2023-05-17T02:29:05.034Z,20.30
2023-05-17T02:30:05.096Z,20.30
2023-05-17T02:31:05.150Z,20.30
2023-05-17T02:32:05.220Z,20.31
2023-05-17T02:33:05.470Z,20.30
2023-05-17T02:34:05.308Z,20.31
2023-05-17T02:35:05.374Z,20.31
2023-05-17T02:36:05.422Z,20.31
2023-05-17T02:37:05.500Z,20.30
2023-05-17T02:38:05.562Z,20.30
2023-05-17T02:39:05.590Z,20.30
2023-05-17T02:40:05.650Z,20.30
2023-05-17T02:41:05.701Z,20.31
2023-05-17T02:42:05.926Z,20.31
2023-05-17T02:43:05.808Z,20.31
2023-05-17T02:44:05.867Z,20.31
2023-05-17T02:45:05.928Z,20.31
2023-05-17T02:46:05.972Z,20.31
2023-05-17T02:47:06.062Z,20.31
2023-05-17T02:48:06.160Z,20.31
2023-05-17T02:49:06.136Z,20.31
2023-05-17T02:50:06.209Z,20.31
2023-05-17T02:51:06.260Z,20.31
2023-05-17T02:52:06.295Z,20.31
2023-05-17T02:53:06.364Z,20.32
2023-05-17T02:54:06.419Z,20.32
2023-05-17T02:55:06.484Z,20.31
2023-05-17T02:56:06.533Z,20.31
2023-05-17T02:57:06.594Z,20.31
2023-05-17T02:58:06.665Z,20.31
2023-05-17T02:59:06.712Z,20.31
2023-05-17T03:00:06.762Z,20.31
2023-05-17T03:01:06.828Z,20.31
2023-05-17T03:02:06.869Z,20.31
2023-05-17T03:03:06.971Z,20.32
2023-05-17T03:04:07.052Z,20.32
2023-05-17T03:05:07.032Z,20.31
2023-05-17T03:06:07.092Z,20.32
2023-05-17T03:07:07.445Z,20.31
2023-05-17T03:08:07.545Z,20.32
2023-05-17T03:09:07.269Z,20.31
2023-05-17T03:10:07.314Z,20.32
2023-05-17T03:11:07.383Z,20.31
2023-05-17T03:12:07.438Z,20.31
2023-05-17T03:13:07.490Z,20.32
2023-05-17T03:14:07.680Z,20.32
2023-05-17T03:15:07.597Z,20.32
2023-05-17T03:16:07.654Z,20.32
2023-05-17T03:17:07.715Z,20.32
2023-05-17T03:18:07.814Z,20.32
2023-05-17T03:19:07.949Z,20.32
2023-05-17T03:20:07.876Z,20.32
2023-05-17T03:21:07.931Z,20.32
2023-05-17T03:22:07.985Z,20.32
2023-05-17T03:23:08.057Z,20.32
2023-05-17T03:24:08.105Z,20.32
2023-05-17T03:25:08.150Z,20.31
2023-05-17T03:26:08.202Z,20.32
2023-05-17T03:27:08.285Z,20.32
2023-05-17T03:28:08.313Z,20.32
2023-05-17T03:29:08.378Z,20.32
2023-05-17T03:30:08.486Z,20.31
2023-05-17T03:31:08.519Z,20.32
2023-05-17T03:32:08.544Z,20.32
2023-05-17T03:33:08.660Z,20.32
2023-05-17T03:34:08.689Z,20.32
2023-05-17T03:35:08.726Z,20.33
2023-05-17T03:36:08.753Z,20.32
2023-05-17T03:37:08.816Z,20.33
2023-05-17T03:38:08.872Z,20.33
2023-05-17T03:39:08.925Z,20.33
2023-05-17T03:40:08.981Z,20.33
2023-05-17T03:41:09.026Z,20.33
2023-05-17T03:42:09.070Z,20.33
2023-05-17T03:43:09.157Z,20.33
2023-05-17T03:44:09.202Z,20.33
2023-05-17T03:45:09.245Z,20.33
2023-05-17T03:46:09.349Z,20.33
2023-05-17T03:47:09.392Z,20.33
2023-05-17T03:48:09.399Z,20.33
2023-05-17T03:49:09.589Z,20.33
2023-05-17T03:50:09.492Z,20.34
2023-05-17T03:51:09.541Z,20.34
2023-05-17T03:52:09.606Z,20.34
2023-05-17T03:53:09.646Z,20.34
2023-05-17T03:54:09.699Z,20.34
2023-05-17T03:55:09.760Z,20.34
2023-05-17T03:56:09.794Z,20.34
2023-05-17T03:57:09.860Z,20.34
2023-05-17T03:58:09.919Z,20.35
2023-05-17T03:59:09.968Z,20.34
2023-05-17T04:00:10.013Z,20.34
2023-05-17T04:01:10.084Z,20.35
2023-05-17T04:02:10.126Z,20.34
2023-05-17T04:03:10.187Z,20.35
2023-05-17T04:04:10.313Z,20.34
2023-05-17T04:05:10.320Z,20.35
2023-05-17T04:06:10.366Z,20.35
2023-05-17T04:07:10.418Z,20.35
2023-05-17T04:08:10.470Z,20.35
2023-05-17T04:09:10.525Z,20.35
2023-05-17T04:10:10.578Z,20.36
2023-05-17T04:11:10.744Z,20.36
2023-05-17T04:12:10.691Z,20.36
2023-05-17T04:13:10.750Z,20.37
2023-05-17T04:14:10.802Z,20.36
2023-05-17T04:15:10.864Z,20.36
2023-05-17T04:16:10.931Z,20.36
2023-05-17T04:17:10.968Z,20.37
2023-05-17T04:18:11.155Z,20.37
2023-05-17T04:19:11.111Z,20.37
2023-05-17T04:20:11.138Z,20.38
2023-05-17T04:21:11.196Z,20.38
2023-05-17T04:22:11.239Z,20.38
2023-05-17T04:23:11.280Z,20.38
2023-05-17T04:24:11.326Z,20.38
2023-05-17T04:25:11.378Z,20.38
2023-05-17T04:26:11.425Z,20.38
2023-05-17T04:27:11.469Z,20.39
2023-05-17T04:28:11.532Z,20.39
2023-05-17T04:29:11.559Z,20.39
2023-05-17T04:30:11.603Z,20.39
2023-05-17T04:31:11.653Z,20.39
2023-05-17T04:32:11.706Z,20.40
2023-05-17T04:33:14.107Z,20.40
2023-05-17T04:34:12.037Z,20.39
2023-05-17T04:35:11.997Z,20.40
2023-05-17T04:36:12.051Z,20.41
2023-05-17T04:37:12.098Z,20.41
2023-05-17T04:38:12.157Z,20.41
2023-05-17T04:39:12.194Z,20.42
2023-05-17T04:40:12.246Z,20.42
2023-05-17T04:41:12.293Z,20.42
2023-05-17T04:42:12.332Z,20.42
2023-05-17T04:43:12.377Z,20.42
2023-05-17T04:44:12.420Z,20.42
2023-05-17T04:45:14.161Z,20.43
2023-05-17T04:46:12.457Z,20.43
2023-05-17T04:47:12.458Z,20.43
2023-05-17T04:48:12.460Z,20.44
2023-05-17T04:49:12.437Z,20.44
2023-05-17T04:50:12.646Z,20.45
2023-05-17T04:51:12.416Z,20.45
2023-05-17T04:52:12.417Z,20.45
2023-05-17T04:53:12.411Z,20.46
2023-05-17T04:54:12.399Z,20.45
2023-05-17T04:55:12.390Z,20.46
2023-05-17T04:56:12.380Z,20.46
2023-05-17T04:57:12.403Z,20.46
2023-05-17T04:58:12.372Z,20.46
2023-05-17T04:59:12.368Z,20.46
2023-05-17T05:00:12.360Z,20.47
2023-05-17T05:01:12.344Z,20.47
2023-05-17T05:02:12.330Z,20.47
2023-05-17T05:03:12.420Z,20.47
2023-05-17T05:04:12.384Z,20.48
2023-05-17T05:05:12.374Z,20.49
2023-05-17T05:06:12.300Z,20.48
2023-05-17T05:07:12.306Z,20.49
2023-05-17T05:08:12.304Z,20.48
2023-05-17T05:09:12.282Z,20.49
2023-05-17T05:10:12.283Z,20.50
2023-05-17T05:11:12.263Z,20.50
2023-05-17T05:12:12.372Z,20.50
2023-05-17T05:13:12.263Z,20.50
2023-05-17T05:14:12.247Z,20.50
2023-05-17T05:15:12.250Z,20.51
2023-05-17T05:16:12.231Z,20.51
2023-05-17T05:17:12.223Z,20.52
2023-05-17T05:18:12.324Z,20.51
2023-05-17T05:19:12.537Z,20.39
2023-05-17T05:20:12.211Z,20.14
2023-05-17T05:21:12.189Z,19.89
2023-05-17T05:22:12.243Z,19.76
2023-05-17T05:23:12.177Z,19.56
2023-05-17T05:24:12.170Z,19.47
2023-05-17T05:25:12.152Z,19.43
2023-05-17T05:26:12.173Z,19.37
2023-05-17T05:27:12.148Z,19.30
2023-05-17T05:28:12.185Z,19.23
2023-05-17T05:29:12.134Z,19.16
2023-05-17T05:30:12.126Z,19.08
2023-05-17T05:31:12.207Z,19.01
2023-05-17T05:32:12.110Z,18.88
2023-05-17T05:33:12.158Z,18.75
2023-05-17T05:34:12.162Z,18.72
2023-05-17T05:35:12.083Z,18.71
2023-05-17T05:36:12.079Z,18.70
2023-05-17T05:37:12.078Z,18.68
2023-05-17T05:38:12.146Z,18.72
2023-05-17T05:39:12.055Z,18.82
2023-05-17T05:40:12.053Z,18.94
2023-05-17T05:41:12.115Z,19.06
2023-05-17T05:42:12.159Z,19.17
2023-05-17T05:43:12.215Z,19.26
2023-05-17T05:44:12.242Z,19.34
2023-05-17T05:45:12.277Z,19.43
2023-05-17T05:46:12.294Z,19.51
2023-05-17T05:47:12.312Z,19.58
2023-05-17T05:48:12.429Z,19.66
2023-05-17T05:49:12.311Z,19.72
2023-05-17T05:50:12.318Z,19.77
2023-05-17T05:51:12.308Z,19.84
2023-05-17T05:52:12.347Z,19.89
2023-05-17T05:53:18.666Z,19.93
2023-05-17T05:54:13.386Z,19.98
2023-05-17T05:55:12.380Z,20.02
2023-05-17T05:56:12.379Z,20.04
2023-05-17T05:57:12.369Z,20.08
2023-05-17T05:58:12.360Z,20.11
2023-05-17T05:59:12.349Z,20.14
2023-05-17T06:00:12.339Z,20.16
2023-05-17T06:01:12.356Z,20.19
2023-05-17T06:02:12.394Z,20.21
2023-05-17T06:03:12.450Z,20.22
2023-05-17T06:04:12.513Z,20.24
2023-05-17T06:05:12.579Z,20.26
2023-05-17T06:06:12.734Z,20.27
2023-05-17T06:07:12.698Z,20.29
2023-05-17T06:08:13.113Z,20.30
2023-05-17T06:09:12.826Z,20.31
2023-05-17T06:10:12.925Z,20.32
2023-05-17T06:11:12.917Z,20.33
2023-05-17T06:12:12.978Z,20.34
2023-05-17T06:13:13.165Z,20.35
2023-05-17T06:14:13.089Z,20.35
2023-05-17T06:15:13.143Z,20.37
2023-05-17T06:16:13.199Z,20.38
2023-05-17T06:17:13.244Z,20.39
2023-05-17T06:18:13.394Z,20.41
2023-05-17T06:19:13.415Z,20.41
2023-05-17T06:20:13.401Z,20.42
2023-05-17T06:21:14.129Z,20.44
2023-05-17T06:22:13.523Z,20.44
2023-05-17T06:23:13.547Z,20.45
2023-05-17T06:24:13.605Z,20.46
2023-05-17T06:25:13.639Z,20.49
2023-05-17T06:26:13.759Z,20.52
2023-05-17T06:27:13.741Z,20.55
2023-05-17T06:28:13.771Z,20.58
2023-05-17T06:29:13.818Z,20.63
2023-05-17T06:30:14.534Z,20.66
2023-05-17T06:31:13.891Z,20.70
2023-05-17T06:32:13.898Z,20.74
2023-05-17T06:33:14.161Z,20.78
2023-05-17T06:34:14.061Z,20.80
2023-05-17T06:35:13.971Z,20.83
2023-05-17T06:36:13.971Z,20.86
2023-05-17T06:37:13.981Z,20.90
2023-05-17T06:38:13.993Z,20.92
2023-05-17T06:39:13.991Z,20.95
2023-05-17T06:41:13.991Z,20.99
2023-05-17T06:42:14.232Z,21.02
2023-05-17T06:43:14.003Z,21.05
2023-05-17T06:44:14.002Z,21.09
2023-05-17T06:45:14.644Z,21.11
2023-05-17T06:46:14.007Z,21.14
2023-05-17T06:47:14.038Z,21.15
2023-05-17T06:48:14.117Z,21.16
2023-05-17T06:49:14.007Z,21.19
2023-05-17T06:50:13.996Z,21.20
2023-05-17T06:51:14.007Z,21.22
2023-05-17T06:52:14.027Z,21.24
2023-05-17T06:53:14.050Z,21.26
2023-05-17T06:54:14.097Z,21.27
2023-05-17T06:55:14.131Z,21.28
2023-05-17T06:56:14.171Z,21.29
2023-05-17T06:57:14.221Z,21.30
2023-05-17T06:58:14.356Z,21.32
2023-05-17T06:59:14.342Z,21.34
2023-05-17T07:00:14.565Z,21.36
2023-05-17T07:01:14.466Z,21.37
2023-05-17T07:02:14.525Z,21.38
2023-05-17T07:03:14.620Z,21.39
2023-05-17T07:04:14.856Z,21.40
2023-05-17T07:05:14.722Z,21.40
2023-05-17T07:06:14.733Z,21.39
2023-05-17T07:07:14.783Z,21.41
2023-05-17T07:08:14.839Z,21.41
2023-05-17T07:09:14.896Z,21.41
2023-05-17T07:10:14.949Z,21.42
2023-05-17T07:11:14.999Z,21.43
2023-05-17T07:12:15.070Z,21.45
2023-05-17T07:13:15.136Z,21.45
2023-05-17T07:14:16.080Z,21.46
2023-05-17T07:15:15.262Z,21.46
2023-05-17T07:16:15.320Z,21.47
2023-05-17T07:17:15.385Z,21.47
2023-05-17T07:18:15.564Z,21.46
2023-05-17T07:19:15.605Z,21.44
2023-05-17T07:20:15.621Z,21.41
2023-05-17T07:21:15.611Z,21.38
2023-05-17T07:22:15.645Z,21.35
2023-05-17T07:23:15.682Z,21.32
2023-05-17T07:24:17.061Z,21.29
2023-05-17T07:25:15.703Z,21.26
2023-05-17T07:26:15.711Z,21.23
2023-05-17T07:27:15.761Z,21.21
2023-05-17T07:28:15.803Z,21.18
2023-05-17T07:29:15.704Z,21.17
2023-05-17T07:30:15.697Z,21.14
2023-05-17T07:31:15.710Z,21.13
2023-05-17T07:32:15.694Z,21.10
2023-05-17T07:33:15.755Z,21.08
2023-05-17T07:34:15.756Z,21.06
2023-05-17T07:35:15.692Z,21.05
2023-05-17T07:36:15.768Z,21.03
2023-05-17T07:37:15.719Z,21.02
2023-05-17T07:38:15.715Z,21.00
2023-05-17T07:39:15.726Z,20.99
2023-05-17T07:40:15.736Z,20.99
2023-05-17T07:41:15.803Z,20.97
2023-05-17T07:42:15.760Z,20.96
2023-05-17T07:43:15.780Z,20.95
2023-05-17T07:44:15.791Z,20.94
2023-05-17T07:45:15.813Z,20.93
2023-05-17T07:46:15.917Z,20.93
2023-05-17T07:47:15.864Z,20.90
2023-05-17T07:48:15.965Z,20.89
2023-05-17T07:49:15.982Z,20.89
2023-05-17T07:50:15.935Z,20.88
2023-05-17T07:51:15.905Z,20.87
2023-05-17T07:52:15.934Z,20.86
2023-05-17T07:53:15.937Z,20.85
2023-05-17T07:54:15.965Z,20.84
2023-05-17T07:55:17.007Z,20.84
2023-05-17T07:56:15.994Z,20.83
2023-05-17T07:57:16.011Z,20.82
2023-05-17T07:58:16.055Z,20.82
2023-05-17T07:59:16.063Z,20.81
2023-05-17T08:00:16.097Z,20.81
2023-05-17T08:01:16.104Z,20.80
2023-05-17T08:02:16.332Z,20.79
2023-05-17T08:03:17.361Z,20.79
2023-05-17T08:04:16.197Z,20.79
2023-05-17T08:05:16.235Z,20.79
2023-05-17T08:06:16.276Z,20.79
2023-05-17T08:07:16.285Z,20.78
2023-05-17T08:08:16.264Z,20.79
2023-05-17T08:09:16.280Z,20.78
2023-05-17T08:10:16.316Z,20.77
2023-05-17T08:11:16.317Z,20.77
2023-05-17T08:12:16.340Z,20.78
2023-05-17T08:13:16.379Z,20.77
2023-05-17T08:14:16.432Z,20.77
2023-05-17T08:15:16.431Z,20.78
2023-05-17T08:16:16.468Z,20.77
2023-05-17T08:17:16.483Z,20.77
2023-05-17T08:18:16.595Z,20.77
2023-05-17T08:19:16.640Z,20.78
2023-05-17T08:20:16.544Z,20.78
2023-05-17T08:21:16.564Z,20.78
2023-05-17T08:22:16.616Z,20.77
2023-05-17T08:23:16.633Z,20.77
2023-05-17T08:24:16.660Z,20.77
2023-05-17T08:25:16.705Z,20.77
2023-05-17T08:26:16.717Z,20.77
2023-05-17T08:27:16.751Z,20.77
2023-05-17T08:28:16.776Z,20.77
2023-05-17T08:29:16.796Z,20.77
2023-05-17T08:30:28.262Z,20.77
2023-05-17T08:31:17.822Z,20.76
2023-05-17T08:32:16.800Z,20.77
2023-05-17T08:33:16.904Z,20.77
2023-05-17T08:34:16.995Z,20.77
2023-05-17T08:35:16.779Z,20.77
2023-05-17T08:36:16.780Z,20.77
2023-05-17T08:37:16.794Z,20.77
2023-05-17T08:38:18.648Z,20.77
2023-05-17T08:39:16.771Z,20.77
2023-05-17T08:40:16.799Z,20.76
2023-05-17T08:41:16.767Z,20.77
2023-05-17T08:42:16.746Z,20.76
2023-05-17T08:43:16.732Z,20.77
2023-05-17T08:44:16.731Z,20.77
2023-05-17T08:45:16.724Z,20.76
2023-05-17T08:46:16.734Z,20.77
2023-05-17T08:47:16.711Z,20.77
2023-05-17T08:48:16.857Z,20.77
2023-05-17T08:49:16.775Z,20.77
2023-05-17T08:50:16.713Z,20.77
2023-05-17T08:51:16.674Z,20.77
2023-05-17T08:52:16.669Z,20.76
2023-05-17T08:53:16.718Z,20.76
2023-05-17T08:54:16.649Z,20.77
2023-05-17T08:55:16.836Z,20.77
2023-05-17T08:56:16.655Z,20.77
2023-05-17T08:57:16.640Z,20.78
2023-05-17T08:58:16.637Z,20.79
2023-05-17T08:59:16.621Z,20.80
2023-05-17T09:00:16.621Z,20.82
2023-05-17T09:01:16.610Z,20.83
2023-05-17T09:02:16.598Z,20.84
2023-05-17T09:03:16.673Z,20.85
2023-05-17T09:04:16.605Z,20.86
2023-05-17T09:05:16.664Z,20.86
2023-05-17T09:06:16.593Z,20.86
2023-05-17T09:07:17.475Z,20.86
2023-05-17T09:08:16.560Z,20.86
2023-05-17T09:09:16.547Z,20.86
2023-05-17T09:10:16.537Z,20.86
2023-05-17T09:11:16.534Z,20.85
2023-05-17T09:12:17.084Z,20.85
2023-05-17T09:13:16.518Z,20.85
2023-05-17T09:14:16.508Z,20.84
2023-05-17T09:15:16.512Z,20.84
2023-05-17T09:16:16.554Z,20.83
2023-05-17T09:17:16.495Z,20.83
2023-05-17T09:18:19.382Z,20.83
2023-05-17T09:19:16.754Z,20.83
2023-05-17T09:20:16.575Z,20.83
2023-05-17T09:21:16.462Z,20.83
2023-05-17T09:22:16.471Z,20.83
2023-05-17T09:23:16.448Z,20.83
2023-05-17T09:24:16.432Z,20.83
2023-05-17T09:25:17.086Z,20.83
2023-05-17T09:26:16.414Z,20.83
2023-05-17T09:27:16.398Z,20.83
2023-05-17T09:28:16.414Z,20.83
2023-05-17T09:29:16.444Z,20.83
2023-05-17T09:30:16.390Z,20.83
2023-05-17T09:31:16.385Z,20.83
2023-05-17T09:32:16.421Z,20.83
2023-05-17T09:33:18.599Z,20.83
2023-05-17T09:34:16.547Z,20.83
2023-05-17T09:35:16.545Z,20.84
2023-05-17T09:36:17.178Z,20.83
2023-05-17T09:37:16.551Z,20.84
2023-05-17T09:38:16.571Z,20.84
2023-05-17T09:39:16.567Z,20.84
2023-05-17T09:40:16.586Z,20.83
2023-05-17T09:41:16.609Z,20.84
2023-05-17T09:42:16.672Z,20.84
2023-05-17T09:43:16.658Z,20.84
2023-05-17T09:44:16.838Z,20.84
2023-05-17T09:45:16.704Z,20.84
2023-05-17T09:46:16.723Z,20.84
2023-05-17T09:47:16.752Z,20.85
2023-05-17T09:48:16.907Z,20.85
2023-05-17T09:49:16.879Z,20.85
2023-05-17T09:50:16.826Z,20.85
2023-05-17T09:51:16.845Z,20.86
2023-05-17T09:52:16.874Z,20.86
2023-05-17T09:53:16.900Z,20.85
2023-05-17T09:54:16.916Z,20.86
2023-05-17T09:55:16.935Z,20.85
2023-05-17T09:56:16.955Z,20.86
2023-05-17T09:57:16.975Z,20.86
2023-05-17T09:58:17.006Z,20.86
2023-05-17T09:59:17.090Z,20.86
2023-05-17T10:00:17.046Z,20.86
2023-05-17T10:01:17.070Z,20.86
2023-05-17T10:02:17.093Z,20.86
2023-05-17T10:03:17.185Z,20.86
2023-05-17T10:04:17.683Z,20.87
2023-05-17T10:05:17.181Z,20.87
2023-05-17T10:06:32.664Z,20.87
2023-05-17T10:07:18.173Z,20.87
2023-05-17T10:08:17.178Z,20.86
2023-05-17T10:09:17.168Z,20.86
2023-05-17T10:10:17.157Z,20.86
2023-05-17T10:11:17.170Z,20.86
2023-05-17T10:12:17.149Z,20.85
2023-05-17T10:13:17.131Z,20.85
2023-05-17T10:14:17.132Z,20.85
2023-05-17T10:15:17.157Z,20.85
2023-05-17T10:16:17.108Z,20.85
2023-05-17T10:17:17.105Z,20.85
2023-05-17T10:18:17.198Z,20.85
2023-05-17T10:19:17.237Z,20.85
2023-05-17T10:20:17.312Z,20.84
2023-05-17T10:21:17.131Z,20.84
2023-05-17T10:22:23.321Z,20.84
2023-05-17T10:23:18.071Z,20.84
2023-05-17T10:24:17.225Z,20.84
2023-05-17T10:25:17.047Z,20.85
2023-05-17T10:26:17.067Z,20.85
2023-05-17T10:27:17.058Z,20.85
2023-05-17T10:28:17.025Z,20.86
2023-05-17T10:29:17.022Z,20.86
2023-05-17T10:30:17.029Z,20.86
2023-05-17T10:31:16.996Z,20.87
2023-05-17T10:32:17.069Z,20.87
2023-05-17T10:33:17.042Z,20.88
2023-05-17T10:34:17.017Z,20.88
2023-05-17T10:35:16.980Z,20.88
2023-05-17T10:36:16.966Z,20.89
2023-05-17T10:37:16.961Z,20.91
2023-05-17T10:38:16.953Z,20.90
2023-05-17T10:39:16.941Z,20.91
2023-05-17T10:40:17.009Z,20.91
2023-05-17T10:41:16.929Z,20.92
2023-05-17T10:42:16.920Z,20.92
2023-05-17T10:43:16.902Z,20.93
2023-05-17T10:44:16.912Z,20.93
2023-05-17T10:45:16.930Z,20.94
2023-05-17T10:46:16.942Z,20.95
2023-05-17T10:47:16.974Z,20.95
2023-05-17T10:48:17.063Z,20.95
2023-05-17T10:49:17.141Z,20.95
2023-05-17T10:50:17.040Z,20.96
2023-05-17T10:51:17.012Z,20.95
2023-05-17T10:52:17.038Z,20.95
2023-05-17T10:53:17.052Z,20.96
2023-05-17T10:54:17.064Z,20.96
2023-05-17T10:55:17.065Z,20.95
2023-05-17T10:56:17.077Z,20.95
2023-05-17T10:57:17.099Z,20.95
2023-05-17T10:58:17.155Z,20.95
2023-05-17T10:59:17.132Z,20.95
2023-05-17T11:00:17.204Z,20.95
2023-05-17T11:01:17.168Z,20.94
2023-05-17T11:02:17.198Z,20.94
2023-05-17T11:03:17.215Z,20.93
2023-05-17T11:04:17.264Z,20.94
2023-05-17T11:05:17.347Z,20.94
2023-05-17T11:06:24.570Z,20.93
2023-05-17T11:07:18.316Z,20.93
2023-05-17T11:08:17.530Z,20.93
2023-05-17T11:09:17.252Z,20.93
2023-05-17T11:10:17.247Z,20.94
2023-05-17T11:11:17.251Z,20.93
2023-05-17T11:12:17.259Z,20.93
2023-05-17T11:13:17.257Z,20.93
2023-05-17T11:14:17.259Z,20.93
2023-05-17T11:15:17.228Z,20.93
2023-05-17T11:16:18.094Z,20.93
2023-05-17T11:17:17.200Z,20.94
2023-05-17T11:18:29.636Z,20.95
2023-05-17T11:19:18.283Z,20.95
2023-05-17T11:20:17.513Z,20.96
2023-05-17T11:21:17.177Z,20.96
2023-05-17T11:22:17.165Z,20.97
2023-05-17T11:23:17.154Z,20.97
2023-05-17T11:24:17.151Z,20.99
2023-05-17T11:25:17.170Z,20.99
2023-05-17T11:26:17.178Z,21.00
2023-05-17T11:27:17.129Z,21.00
2023-05-17T11:28:17.131Z,21.01
2023-05-17T11:29:17.139Z,21.01
2023-05-17T11:30:17.119Z,21.01
2023-05-17T11:31:17.102Z,21.02
2023-05-17T11:32:17.097Z,21.02
2023-05-17T11:33:29.231Z,21.04
2023-05-17T11:34:18.090Z,21.03
2023-05-17T11:35:17.080Z,21.04
2023-05-17T11:36:17.067Z,21.05
2023-05-17T11:37:17.058Z,21.05
2023-05-17T11:38:17.051Z,21.05
2023-05-17T11:39:17.086Z,21.07
2023-05-17T11:40:17.031Z,21.08
2023-05-17T11:41:25.959Z,21.08
2023-05-17T11:42:18.030Z,21.07
2023-05-17T11:43:17.025Z,21.08
2023-05-17T11:44:17.024Z,21.09
2023-05-17T11:45:17.010Z,21.09
2023-05-17T11:46:17.107Z,21.09
2023-05-17T11:47:17.038Z,21.09
2023-05-17T11:48:17.086Z,21.09
2023-05-17T11:49:27.001Z,21.09
2023-05-17T11:50:18.008Z,21.09
2023-05-17T11:51:16.984Z,21.09
2023-05-17T11:52:16.969Z,21.10
2023-05-17T11:53:16.954Z,21.10
2023-05-17T11:54:17.025Z,21.10
2023-05-17T11:55:16.938Z,21.09
2023-05-17T11:56:16.929Z,21.09
2023-05-17T11:57:16.935Z,21.08
2023-05-17T11:58:16.919Z,21.09
2023-05-17T11:59:16.906Z,21.09
2023-05-17T12:00:16.907Z,21.09
2023-05-17T12:01:16.888Z,21.08
2023-05-17T12:02:16.879Z,21.09
2023-05-17T12:03:16.878Z,21.08
2023-05-17T12:04:16.929Z,21.08
2023-05-17T12:05:16.870Z,21.09
2023-05-17T12:06:16.877Z,21.09
2023-05-17T12:07:16.842Z,21.09
2023-05-17T12:08:16.840Z,21.09
2023-05-17T12:09:16.831Z,21.09
2023-05-17T12:10:16.829Z,21.09
2023-05-17T12:11:16.846Z,21.09
2023-05-17T12:12:16.827Z,21.09
2023-05-17T12:13:16.795Z,21.10
2023-05-17T12:14:16.789Z,21.09
2023-05-17T12:15:16.772Z,21.09
2023-05-17T12:16:18.320Z,21.09
2023-05-17T12:17:16.764Z,21.10
2023-05-17T12:18:16.874Z,21.10
2023-05-17T12:19:16.807Z,21.10
2023-05-17T12:20:16.780Z,21.10
2023-05-17T12:21:16.736Z,21.11
2023-05-17T12:22:16.727Z,21.10
2023-05-17T12:23:16.732Z,21.11
2023-05-17T12:24:16.783Z,21.11
2023-05-17T12:25:16.720Z,21.11
2023-05-17T12:26:16.790Z,21.11
2023-05-17T12:27:16.705Z,21.12
2023-05-17T12:28:16.690Z,21.12
2023-05-17T12:29:16.692Z,21.11
2023-05-17T12:30:16.699Z,21.12
2023-05-17T12:31:16.718Z,21.11
2023-05-17T12:32:16.731Z,21.11
2023-05-17T12:33:16.783Z,21.11
2023-05-17T12:34:16.817Z,21.12
2023-05-17T12:35:16.737Z,21.11
2023-05-17T12:36:16.730Z,21.11
2023-05-17T12:37:16.726Z,21.12
2023-05-17T12:38:16.733Z,21.12
2023-05-17T12:39:16.741Z,21.12
2023-05-17T12:40:16.748Z,21.11
2023-05-17T12:41:16.761Z,21.11
2023-05-17T12:42:16.776Z,21.11
2023-05-17T12:43:16.779Z,21.10
2023-05-17T12:44:17.017Z,21.11
2023-05-17T12:45:16.796Z,21.11
2023-05-17T12:46:16.790Z,21.10
2023-05-17T12:47:16.802Z,21.10
2023-05-17T12:48:16.860Z,21.10
2023-05-17T12:49:16.918Z,21.09
2023-05-17T12:50:16.817Z,21.10
2023-05-17T12:51:16.820Z,21.09
2023-05-17T12:52:16.831Z,21.09
2023-05-17T12:53:16.841Z,21.09
2023-05-17T12:54:16.864Z,21.08